Archiv-/Tagesdaten

--Timestamp---	Temp	Chill	HIndex	Humid	Dewpt	Wind	HiWind	WindDir	Rain	Barom	        Solar	ET	UV
--------------	----	-----	------	-----	-----	----	------	-------	----	-----	        -----	--	--
20080603 00:05	17.5	17.5	17.5	75	13.0	10	19	247	0.00	1008.469	0	0.000	0
20080603 00:10	17.3	17.3	17.3	75	12.9	11	24	270	0.00	1008.537	0	0.000	0
20080603 00:15	17.2	17.2	17.2	75	12.7	6	18	270	0.00	1008.605	0	0.000	0
20080603 00:20	17.0	17.0	17.0	76	12.7	8	18	247	0.00	1008.605	0	0.000	0
20080603 00:25	16.8	16.8	16.8	77	12.7	8	18	247	0.00	1008.673	0	0.000	0
20080603 00:30	16.7	16.7	16.7	77	12.7	8	16	247	0.00	1008.774	0	0.000	0
20080603 00:35	16.6	16.6	16.6	78	12.8	6	13	247	0.00	1008.910	0	0.000	0
20080603 00:40	16.5	16.5	16.5	78	12.6	5	13	247	0.00	1008.943	0	0.000	0
20080603 00:45	16.4	16.4	16.4	79	12.8	5	18	270	0.00	1009.011	0	0.000	0
20080603 00:50	16.4	16.4	16.4	79	12.7	6	14	247	0.00	1009.113	0	0.000	0
20080603 00:55	16.3	16.3	16.3	79	12.6	6	14	247	0.00	1009.181	0	0.000	0
20080603 01:00	16.2	16.2	16.2	80	12.7	6	16	247	0.00	1009.181	0	0.020	0
20080603 01:05	16.1	16.1	16.1	80	12.6	6	16	247	0.00	1009.079	0	0.000	0
20080603 01:10	15.9	15.9	15.9	81	12.7	6	14	247	0.00	1009.248	0	0.000	0
20080603 01:15	15.8	15.8	15.8	81	12.6	5	11	247	0.00	1009.282	0	0.000	0
20080603 01:20	15.8	15.8	15.8	81	12.5	5	11	247	0.00	1009.451	0	0.000	0
20080603 01:25	15.7	15.7	15.7	81	12.4	5	11	247	0.00	1009.553	0	0.000	0
20080603 01:30	15.6	15.6	15.6	82	12.5	5	10	270	0.00	1009.756	0	0.000	0
20080603 01:35	15.6	15.6	15.6	82	12.5	3	11	247	0.00	1009.722	0	0.000	0
20080603 01:40	15.6	15.6	15.6	82	12.5	3	10	247	0.00	1009.824	0	0.000	0
20080603 01:45	15.6	15.6	15.6	82	12.5	5	16	270	0.00	1009.993	0	0.000	0
20080603 01:50	15.6	15.6	15.6	82	12.5	5	11	270	0.00	1010.061	0	0.000	0
20080603 01:55	15.6	15.6	15.6	82	12.5	6	21	247	0.00	1010.095	0	0.000	0
20080603 02:00	15.7	15.7	15.7	82	12.6	5	11	247	0.00	1010.129	0	0.020	0
20080603 02:05	15.7	15.7	15.7	81	12.4	8	16	247	0.00	1010.163	0	0.000	0
20080603 02:10	15.7	15.7	15.7	81	12.5	6	21	247	0.00	1010.163	0	0.000	0
20080603 02:15	15.8	15.8	15.8	81	12.6	8	18	247	0.00	1010.095	0	0.000	0
20080603 02:20	15.8	15.8	15.8	80	12.4	5	14	247	0.00	1010.027	0	0.000	0
20080603 02:25	15.9	15.9	15.9	80	12.4	8	14	247	0.00	1010.061	0	0.000	0
20080603 02:30	15.9	15.9	15.9	80	12.4	8	16	247	0.00	1010.095	0	0.000	0
20080603 02:35	15.8	15.8	15.8	80	12.4	6	18	247	0.00	1010.061	0	0.000	0
20080603 02:40	15.8	15.8	15.8	79	12.2	8	16	247	0.00	1010.061	0	0.000	0
20080603 02:45	15.8	15.8	15.8	79	12.2	6	19	247	0.00	1009.959	0	0.000	0
20080603 02:50	15.8	15.8	15.8	79	12.2	10	23	247	0.00	1009.993	0	0.000	0
20080603 02:55	15.8	15.8	15.8	79	12.1	6	19	247	0.00	1009.993	0	0.000	0
20080603 03:00	15.8	15.8	15.8	79	12.1	8	18	247	0.00	1009.993	0	0.020	0
20080603 03:05	15.8	15.8	15.8	78	11.9	8	16	247	0.00	1009.926	0	0.000	0
20080603 03:10	15.7	15.7	15.7	78	11.9	6	19	247	0.00	1009.892	0	0.000	0
20080603 03:15	15.7	15.7	15.7	78	11.9	6	19	247	0.00	1009.926	0	0.000	0
20080603 03:20	15.7	15.7	15.7	78	11.8	6	14	247	0.00	1009.892	0	0.000	0
20080603 03:25	15.6	15.6	15.6	78	11.8	6	19	247	0.00	1009.926	0	0.000	0
20080603 03:30	15.6	15.6	15.6	78	11.8	8	18	247	0.00	1009.892	0	0.000	0
20080603 03:35	15.6	15.6	15.6	78	11.8	5	14	247	0.00	1009.926	0	0.000	0
20080603 03:40	15.6	15.6	15.6	78	11.8	6	18	247	0.00	1009.858	0	0.000	0
20080603 03:45	15.7	15.7	15.7	78	11.8	6	18	247	0.00	1009.858	0	0.000	0
20080603 03:50	15.6	15.6	15.6	77	11.6	6	21	247	0.00	1009.824	0	0.000	0
20080603 03:55	15.7	15.7	15.7	77	11.6	6	24	247	0.00	1009.756	0	0.000	0
20080603 04:00	15.6	15.6	15.6	77	11.6	6	14	247	0.00	1009.824	0	0.020	0
20080603 04:05	15.7	15.7	15.7	77	11.6	8	18	247	0.00	1009.993	0	0.000	0
20080603 04:10	15.7	15.7	15.7	77	11.6	6	14	247	0.00	1009.959	0	0.000	0
20080603 04:15	15.7	15.7	15.7	76	11.4	6	16	247	0.00	1009.993	0	0.000	0
20080603 04:20	15.7	15.7	15.7	76	11.4	5	11	247	0.00	1010.061	0	0.000	0
20080603 04:25	15.6	15.6	15.6	76	11.4	3	8	247	0.00	1010.061	0	0.000	0
20080603 04:30	15.6	15.6	15.6	76	11.4	5	8	270	0.00	1010.061	0	0.000	0
20080603 04:35	15.6	15.6	15.6	76	11.3	5	16	247	0.00	1010.095	0	0.000	0
20080603 04:40	15.6	15.6	15.6	76	11.3	5	11	247	0.00	1010.129	0	0.000	0
20080603 04:45	15.6	15.6	15.6	76	11.3	5	16	247	0.00	1010.196	0	0.000	0
20080603 04:50	15.6	15.6	15.6	76	11.3	5	11	247	0.00	1010.196	0	0.000	0
20080603 04:55	15.5	15.5	15.5	76	11.3	5	11	225	0.00	1010.129	0	0.000	0
20080603 05:00	15.5	15.5	15.5	76	11.3	2	8	270	0.00	1010.196	0	0.020	0
20080603 05:05	15.5	15.5	15.5	76	11.3	3	10	247	0.00	1010.230	0	0.000	0
20080603 05:10	15.4	15.4	15.4	76	11.2	3	8	247	0.00	1010.230	0	0.000	0
20080603 05:15	15.4	15.4	15.4	76	11.2	3	8	247	0.00	1010.332	0	0.000	0
20080603 05:20	15.4	15.4	15.4	76	11.2	3	6	247	0.00	1010.433	0	0.000	0
20080603 05:25	15.4	15.4	15.4	75	11.0	3	8	247	0.00	1010.501	0	0.000	0
20080603 05:30	15.4	15.4	15.4	75	11.0	3	8	247	0.00	1010.467	0	0.000	0
20080603 05:35	15.4	15.4	15.4	74	10.8	3	6	247	0.00	1010.569	0	0.000	0
20080603 05:40	15.4	15.4	15.4	75	11.0	3	8	247	0.00	1010.535	0	0.000	0
20080603 05:45	15.3	15.3	15.3	75	10.9	5	14	247	0.00	1010.535	0	0.000	0
20080603 05:50	15.3	15.3	15.3	76	11.1	6	16	247	0.00	1010.501	0	0.000	0
20080603 05:55	15.0	15.0	15.0	79	11.4	6	16	247	0.00	1010.671	5	0.000	0
20080603 06:00	14.8	14.8	14.8	81	11.6	3	10	247	0.00	1010.637	5	0.020	0
20080603 06:05	14.6	14.6	14.6	82	11.5	5	11	270	0.00	1010.874	7	0.000	0
20080603 06:10	14.4	14.4	14.4	83	11.6	5	10	247	0.00	1010.908	8	0.000	0
20080603 06:15	14.4	14.4	14.4	83	11.5	3	10	247	0.00	1011.043	10	0.000	0
20080603 06:20	14.4	14.4	14.4	83	11.5	2	8	247	0.00	1011.111	11	0.000	0
20080603 06:25	14.4	14.4	14.4	83	11.5	2	5	270	0.00	1011.043	14	0.000	0
20080603 06:30	14.4	14.4	14.4	83	11.6	2	8	292	0.00	1011.077	18	0.000	0
20080603 06:35	14.4	14.4	14.4	83	11.6	2	6	270	0.00	1011.077	24	0.000	0
20080603 06:40	14.4	14.4	14.4	83	11.6	2	6	292	0.00	1011.145	32	0.000	0
20080603 06:45	14.5	14.5	14.5	83	11.6	2	5	270	0.20	1011.145	37	0.000	0
20080603 06:50	14.5	14.5	14.5	83	11.6	2	5	270	0.00	1011.212	39	0.000	0
20080603 06:55	14.5	14.5	14.5	83	11.6	2	6	247	0.00	1011.246	41	0.000	0
20080603 07:00	14.6	14.6	14.6	83	11.7	3	8	270	0.00	1011.314	42	0.020	0
20080603 07:05	14.6	14.6	14.6	82	11.6	3	11	270	0.00	1011.483	47	0.000	0
20080603 07:10	14.7	14.7	14.7	81	11.5	5	11	247	0.00	1011.483	54	0.000	0
20080603 07:15	14.8	14.8	14.8	81	11.6	5	8	225	0.00	1011.551	61	0.000	0
20080603 07:20	14.9	14.9	14.9	81	11.7	3	10	225	0.00	1011.585	67	0.000	0
20080603 07:25	15.0	15.0	15.0	81	11.8	3	8	247	0.00	1011.585	74	0.000	0
20080603 07:30	15.0	15.0	15.0	81	11.8	3	10	247	0.00	1011.551	80	0.000	0
20080603 07:35	15.0	15.0	15.0	81	11.8	3	6	247	0.00	1011.686	80	0.000	0
20080603 07:40	15.1	15.1	15.1	80	11.7	3	8	247	0.00	1011.686	81	0.000	0
20080603 07:45	15.2	15.2	15.2	79	11.6	5	16	247	0.00	1011.686	89	0.000	0
20080603 07:50	15.3	15.3	15.3	80	11.8	5	16	270	0.00	1011.585	100	0.000	0
20080603 07:55	15.3	15.3	15.3	79	11.7	8	18	270	0.00	1011.619	97	0.000	0
20080603 08:00	15.3	15.3	15.3	78	11.5	5	14	247	0.00	1011.686	81	0.040	0
20080603 08:05	15.3	15.3	15.3	79	11.7	5	10	247	0.00	1011.856	65	0.000	0
20080603 08:10	15.3	15.3	15.3	79	11.7	6	14	270	0.00	1011.856	74	0.000	0
20080603 08:15	15.3	15.3	15.3	79	11.7	6	14	270	0.00	1011.924	98	0.000	1
20080603 08:20	15.3	15.3	15.3	78	11.5	10	18	270	0.00	1011.957	95	0.000	0
20080603 08:25	15.3	15.3	15.3	79	11.7	6	18	270	0.00	1011.991	86	0.000	0
20080603 08:30	15.4	15.4	15.4	78	11.6	8	18	270	0.00	1012.059	79	0.000	0
20080603 08:35	15.3	15.3	15.3	78	11.5	6	16	270	0.00	1012.127	68	0.000	0
20080603 08:40	15.3	15.3	15.3	78	11.5	6	14	270	0.00	1012.161	68	0.000	0
20080603 08:45	15.4	15.4	15.4	78	11.6	5	10	270	0.00	1012.194	63	0.000	0
20080603 08:50	15.4	15.4	15.4	77	11.4	6	13	247	0.00	1012.296	51	0.000	0
20080603 08:55	15.4	15.4	15.4	78	11.6	6	18	247	0.00	1012.364	40	0.000	0
20080603 09:00	15.3	15.3	15.3	78	11.5	5	16	247	0.00	1012.364	38	0.040	0
20080603 09:05	15.3	15.3	15.3	78	11.5	5	10	270	0.00	1012.533	38	0.000	0
20080603 09:10	15.3	15.3	15.3	78	11.5	5	11	292	0.00	1012.533	44	0.000	0
20080603 09:15	15.3	15.3	15.3	78	11.5	2	8	270	0.00	1012.601	51	0.000	0
20080603 09:20	15.4	15.4	15.4	78	11.6	5	11	270	0.00	1012.669	59	0.000	0
20080603 09:25	15.4	15.4	15.4	77	11.4	3	8	270	0.00	1012.702	72	0.000	1
20080603 09:30	15.4	15.4	15.4	78	11.6	2	8	270	0.00	1012.736	90	0.000	1
20080603 09:35	15.6	15.6	15.6	77	11.5	3	8	247	0.00	1012.770	118	0.000	1
20080603 09:40	15.7	15.7	15.7	76	11.5	5	10	270	0.00	1012.770	133	0.000	1
20080603 09:45	15.8	15.8	15.8	76	11.6	5	11	247	0.00	1012.635	173	0.000	1
20080603 09:50	16.0	16.0	16.0	76	11.8	8	16	270	0.00	1012.770	182	0.000	2
20080603 09:55	16.1	16.1	16.1	74	11.5	8	16	292	0.00	1012.770	155	0.000	1
20080603 10:00	16.1	16.1	16.1	73	11.3	6	11	270	0.00	1012.872	113	0.060	1
20080603 10:05	16.1	16.1	16.1	74	11.4	5	8	247	0.00	1013.007	100	0.000	1
20080603 10:10	16.0	16.0	16.0	73	11.2	6	16	270	0.00	1013.109	95	0.000	1
20080603 10:15	15.9	15.9	15.9	74	11.3	8	11	270	0.00	1013.075	90	0.000	1
20080603 10:20	15.8	15.8	15.8	74	11.2	6	14	247	0.00	1013.109	90	0.000	1
20080603 10:25	15.8	15.8	15.8	75	11.4	5	11	247	0.00	1013.075	92	0.000	1
20080603 10:30	15.8	15.8	15.8	76	11.6	3	8	247	0.00	1013.041	101	0.000	1
20080603 10:35	15.9	15.9	15.9	75	11.5	3	10	247	0.00	1013.041	144	0.000	1
20080603 10:40	16.0	16.0	16.0	74	11.4	6	16	270	0.00	1013.109	185	0.000	2
20080603 10:45	16.1	16.1	16.1	73	11.2	6	16	270	0.00	1013.109	176	0.000	2
20080603 10:50	16.2	16.2	16.2	74	11.5	6	16	270	0.00	1013.210	170	0.000	2
20080603 10:55	16.2	16.2	16.2	73	11.4	10	18	270	0.00	1013.312	185	0.000	2
20080603 11:00	16.3	16.3	16.3	72	11.2	8	19	270	0.00	1013.210	214	0.080	2
20080603 11:05	16.4	16.4	16.4	73	11.6	5	10	247	0.00	1013.380	225	0.000	2
20080603 11:10	16.5	16.5	16.5	72	11.4	6	18	247	0.00	1013.312	247	0.000	2
20080603 11:15	16.6	16.6	16.6	72	11.5	5	11	247	0.00	1013.346	283	0.000	3
20080603 11:20	16.7	16.7	16.7	72	11.6	5	10	247	0.00	1013.380	289	0.000	3
20080603 11:25	16.9	16.9	16.9	72	11.8	6	13	270	0.00	1013.346	281	0.000	3
20080603 11:30	17.0	17.0	17.0	71	11.7	6	10	270	0.00	1013.380	276	0.000	3
20080603 11:35	17.1	17.1	17.1	72	12.0	3	10	270	0.00	1013.312	283	0.000	3
20080603 11:40	17.2	17.2	17.2	71	11.9	5	11	270	0.00	1013.278	345	0.000	3
20080603 11:45	17.3	17.3	17.3	70	11.8	5	11	270	0.00	1013.244	383	0.000	4
20080603 11:50	17.3	17.3	17.3	70	11.8	6	11	270	0.00	1013.278	354	0.000	4
20080603 11:55	17.4	17.4	17.4	69	11.6	6	13	270	0.00	1013.278	330	0.000	3
20080603 12:00	17.4	17.4	17.4	69	11.7	6	11	270	0.00	1013.244	331	0.140	3
20080603 12:05	17.5	17.5	17.5	70	12.0	3	11	270	0.00	1013.380	337	0.000	3
20080603 12:10	17.7	17.7	17.7	69	11.9	3	11	270	0.00	1013.414	359	0.000	4
20080603 12:15	17.7	17.7	17.7	69	12.0	5	8	247	0.00	1013.447	371	0.000	4
20080603 12:20	17.9	17.9	17.9	70	12.3	3	11	247	0.00	1013.447	433	0.000	4
20080603 12:25	18.1	18.1	18.1	68	12.1	2	6	247	0.00	1013.414	391	0.000	4
20080603 12:30	18.0	18.0	18.0	67	11.8	5	11	247	0.00	1013.481	381	0.000	4
20080603 12:35	18.1	18.1	18.1	67	11.9	5	11	270	0.00	1013.346	426	0.000	4
20080603 12:40	18.3	18.3	18.3	68	12.3	5	10	270	0.00	1013.312	427	0.000	5
20080603 12:45	18.4	18.4	18.4	67	12.2	6	14	270	0.00	1013.312	393	0.000	4
20080603 12:50	18.6	18.6	18.6	65	11.9	5	13	270	0.00	1013.278	408	0.000	4
20080603 12:55	18.6	18.6	18.6	66	12.1	8	18	270	0.00	1013.244	451	0.000	5
20080603 13:00	18.7	18.7	18.7	65	11.9	8	16	270	0.00	1013.210	556	0.200	6
20080603 13:05	18.8	18.8	18.8	66	12.3	6	11	292	0.00	1013.278	581	0.000	6
20080603 13:10	18.9	18.9	18.9	65	12.2	6	18	270	0.00	1013.244	506	0.000	5
20080603 13:15	19.0	19.0	19.0	64	12.0	8	18	270	0.00	1013.210	541	0.000	6
20080603 13:20	19.1	19.1	19.1	65	12.4	6	11	270	0.00	1013.177	589	0.000	6
20080603 13:25	19.2	19.2	19.2	63	12.0	5	14	270	0.00	1013.109	547	0.000	6
20080603 13:30	19.3	19.3	19.3	64	12.3	5	8	292	0.00	1013.143	431	0.000	5
20080603 13:35	19.3	19.3	19.3	64	12.3	6	10	270	0.00	1013.109	410	0.000	5
20080603 13:40	19.3	19.3	19.3	64	12.3	6	14	292	0.00	1013.075	416	0.000	5
20080603 13:45	19.3	19.3	19.3	64	12.3	5	11	270	0.00	1013.041	409	0.000	5
20080603 13:50	19.3	19.3	19.3	64	12.3	6	16	270	0.00	1013.007	395	0.000	5
20080603 13:55	19.4	19.4	19.4	64	12.4	6	13	292	0.00	1013.075	434	0.000	6
20080603 14:00	19.4	19.4	19.4	65	12.7	3	10	247	0.00	1012.973	449	0.240	5
20080603 14:05	19.6	19.6	19.6	63	12.3	6	10	270	0.00	1013.007	535	0.000	6
20080603 14:10	19.7	19.7	19.7	63	12.4	3	10	292	0.00	1012.906	616	0.000	6
20080603 14:15	19.9	19.9	19.9	64	12.9	3	11	270	0.00	1012.736	613	0.000	6
20080603 14:20	20.2	20.2	20.2	63	12.9	3	11	270	0.00	1012.702	682	0.000	6
20080603 14:25	20.2	20.2	20.2	60	12.2	6	18	292	0.00	1012.702	512	0.000	6
20080603 14:30	20.2	20.2	20.2	62	12.6	6	18	292	0.00	1012.635	812	0.000	7
20080603 14:35	20.4	20.4	20.4	60	12.4	6	24	292	0.00	1012.601	885	0.000	8
20080603 14:40	20.8	20.8	20.8	61	13.0	10	23	292	0.00	1012.567	901	0.000	7
20080603 14:45	21.1	21.1	21.1	59	12.7	3	8	270	0.00	1012.431	770	0.000	7
20080603 14:50	21.2	21.2	21.2	59	12.9	3	10	292	0.00	1012.431	813	0.000	7
20080603 14:55	21.2	21.2	21.2	59	12.9	6	14	292	0.00	1012.431	844	0.000	6
20080603 15:00	21.1	21.1	21.1	58	12.5	5	18	337	0.00	1012.398	480	0.340	6
20080603 15:05	21.2	21.2	21.2	58	12.6	6	14	292	0.00	1012.296	809	0.000	7
20080603 15:10	21.5	21.5	21.5	58	12.9	3	11	22	0.00	1012.296	795	0.000	7
20080603 15:15	21.7	21.7	21.7	59	13.4	3	10	270	0.00	1012.262	803	0.000	6
20080603 15:20	21.6	21.6	21.6	56	12.4	10	19	292	0.00	1012.228	660	0.000	5
20080603 15:25	21.4	21.4	21.4	56	12.3	3	14	292	0.00	1012.161	868	0.000	6
20080603 15:30	21.4	21.4	21.4	57	12.6	6	16	292	0.00	1012.093	465	0.000	5
20080603 15:35	21.2	21.2	21.2	57	12.4	8	16	292	0.00	1012.059	283	0.000	3
20080603 15:40	21.0	21.0	21.0	59	12.7	5	10	292	0.00	1011.991	308	0.000	3
20080603 15:45	20.8	20.8	20.8	58	12.2	6	16	292	0.00	1011.957	405	0.000	4
20080603 15:50	20.8	20.8	20.8	58	12.2	8	18	292	0.00	1012.059	441	0.000	4
20080603 15:55	20.7	20.7	20.7	60	12.6	5	11	292	0.00	1012.025	453	0.000	4
20080603 16:00	20.9	20.9	20.9	59	12.6	2	10	270	0.00	1011.890	392	0.280	4
20080603 16:05	21.1	21.1	21.1	60	13.0	5	14	292	0.00	1011.957	395	0.000	3
20080603 16:10	21.1	21.1	21.1	59	12.7	6	18	315	0.00	1011.890	305	0.000	3
20080603 16:15	20.9	20.9	20.9	59	12.6	6	14	270	0.00	1011.890	299	0.000	3
20080603 16:20	20.9	20.9	20.9	59	12.6	5	13	270	0.00	1011.856	313	0.000	2
20080603 16:25	20.9	20.9	20.9	58	12.3	2	6	292	0.00	1011.788	278	0.000	2
20080603 16:30	20.9	20.9	20.9	61	13.1	5	8	292	0.00	1011.788	261	0.000	2
20080603 16:35	20.9	20.9	20.9	61	13.1	5	10	292	0.00	1011.754	295	0.000	2
20080603 16:40	21.1	21.1	21.1	61	13.2	5	14	270	0.00	1011.754	672	0.000	3
20080603 16:45	21.5	21.5	21.5	59	13.1	5	11	292	0.00	1011.686	701	0.000	4
20080603 16:50	21.8	21.8	21.8	58	13.2	5	10	270	0.00	1011.619	653	0.000	3
20080603 16:55	22.4	22.4	22.4	58	13.7	3	8	292	0.00	1011.382	617	0.000	3
20080603 17:00	22.4	22.4	22.4	54	12.7	3	8	22	0.00	1011.416	545	0.240	3
20080603 17:05	22.3	22.3	22.3	55	12.8	5	16	292	0.00	1011.449	570	0.000	3
20080603 17:10	22.1	22.1	22.1	56	12.9	6	18	292	0.00	1011.483	572	0.000	3
20080603 17:15	22.0	22.0	22.0	55	12.5	3	11	292	0.00	1011.416	253	0.000	2
20080603 17:20	21.7	21.7	21.7	58	13.1	5	14	292	0.00	1011.382	320	0.000	2
20080603 17:25	21.7	21.7	21.7	57	12.8	2	6	292	0.00	1011.382	364	0.000	2
20080603 17:30	21.7	21.7	21.7	57	12.8	2	6	22	0.00	1011.382	268	0.000	2
20080603 17:35	21.6	21.6	21.6	57	12.7	3	10	292	0.00	1011.416	363	0.000	2
20080603 17:40	21.6	21.6	21.6	57	12.7	5	16	292	0.00	1011.382	398	0.000	2
20080603 17:45	21.4	21.4	21.4	58	12.8	2	10	292	0.00	1011.449	253	0.000	1
20080603 17:50	21.3	21.3	21.3	60	13.2	2	6	292	0.00	1011.416	232	0.000	1
20080603 17:55	21.2	21.2	21.2	60	13.1	3	11	292	0.00	1011.483	196	0.000	1
20080603 18:00	21.0	21.0	21.0	58	12.4	2	8	292	0.00	1011.449	170	0.180	1
20080603 18:05	20.8	20.8	20.8	62	13.3	0	5	292	0.00	1011.517	171	0.000	1
20080603 18:10	20.8	20.8	20.8	62	13.3	2	5	315	0.00	1011.416	168	0.000	1
20080603 18:15	20.8	20.8	20.8	62	13.3	0	3	0	0.00	1011.517	135	0.000	1
20080603 18:20	20.7	20.7	20.7	62	13.2	0	3	315	0.00	1011.585	127	0.000	1
20080603 18:25	20.7	20.7	20.7	62	13.1	0	2	315	0.00	1011.619	113	0.000	1
20080603 18:30	20.6	20.6	20.6	63	13.3	0	3	315	0.00	1011.686	104	0.000	1
20080603 18:35	20.5	20.5	20.5	63	13.2	0	2	315	0.00	1011.653	106	0.000	0
20080603 18:40	20.4	20.4	20.4	63	13.2	0	2	315	0.00	1011.585	102	0.000	0
20080603 18:45	20.4	20.4	20.4	63	13.2	0	2	315	0.00	1011.585	100	0.000	0
20080603 18:50	20.4	20.4	20.4	64	13.4	0	2	315	0.00	1011.619	87	0.000	0
20080603 18:55	20.5	20.5	20.5	63	13.2	0	2	315	0.00	1011.517	106	0.000	0
20080603 19:00	20.4	20.4	20.4	65	13.6	0	3	315	0.00	1011.483	121	0.060	0
20080603 19:05	20.4	20.4	20.4	63	13.1	0	3	315	0.00	1011.483	117	0.000	0
20080603 19:10	20.4	20.4	20.4	64	13.3	0	3	315	0.00	1011.449	106	0.000	0
20080603 19:15	20.3	20.3	20.3	64	13.3	0	2	315	0.00	1011.416	106	0.000	0
20080603 19:20	20.3	20.3	20.3	64	13.3	0	2	315	0.00	1011.382	111	0.000	0
20080603 19:25	20.4	20.4	20.4	64	13.3	0	5	0	0.00	1011.416	109	0.000	0
20080603 19:30	20.3	20.3	20.3	65	13.5	0	2	0	0.00	1011.416	102	0.000	0
20080603 19:35	20.3	20.3	20.3	65	13.5	0	2	337	0.00	1011.382	98	0.000	0
20080603 19:40	20.2	20.2	20.2	66	13.7	0	2	337	0.00	1011.416	100	0.000	0
20080603 19:45	20.1	20.1	20.1	67	13.8	0	0	337	0.00	1011.416	91	0.000	0
20080603 19:50	20.1	20.1	20.1	67	13.7	0	2	337	0.00	1011.449	77	0.000	0
20080603 19:55	20.0	20.0	20.0	67	13.7	0	0	337	0.00	1011.449	62	0.000	0
20080603 20:00	19.9	19.9	19.9	67	13.6	0	0	337	0.00	1011.449	50	0.040	0
20080603 20:05	19.7	19.7	19.7	68	13.6	0	2	337	0.00	1011.416	41	0.000	0
20080603 20:10	19.6	19.6	19.6	69	13.8	0	0	337	0.00	1011.517	34	0.000	0
20080603 20:15	19.6	19.6	19.6	68	13.5	0	0	337	0.00	1011.585	27	0.000	0
20080603 20:20	19.4	19.4	19.4	70	13.8	0	0	337	0.00	1011.551	24	0.000	0
20080603 20:25	19.4	19.4	19.4	69	13.5	0	0	337	0.00	1011.653	19	0.000	0
20080603 20:30	19.3	19.3	19.3	69	13.5	0	3	337	0.00	1011.653	14	0.000	0
20080603 20:35	19.2	19.2	19.2	67	12.9	3	8	0	0.00	1011.754	12	0.000	0
20080603 20:40	19.1	19.1	19.1	68	13.0	3	6	0	0.00	1011.754	8	0.000	0
20080603 20:45	18.9	18.9	18.9	69	13.1	5	8	22	0.00	1011.653	7	0.000	0
20080603 20:50	18.8	18.8	18.8	70	13.2	3	6	22	0.00	1011.686	5	0.000	0
20080603 20:55	18.7	18.7	18.7	71	13.4	3	5	22	0.00	1011.653	0	0.000	0
20080603 21:00	18.7	18.7	18.7	74	13.9	0	3	22	0.00	1011.686	0	0.020	0
20080603 21:05	18.5	18.5	18.5	76	14.2	0	5	315	0.00	1011.754	0	0.000	0
20080603 21:10	18.2	18.2	18.2	77	14.1	5	10	270	0.00	1011.788	0	0.000	0
20080603 21:15	17.8	17.8	17.8	79	14.1	3	6	270	0.20	1011.957	0	0.000	0
20080603 21:20	17.6	17.6	17.6	80	14.1	2	6	292	0.00	1012.025	0	0.000	0
20080603 21:25	17.2	17.2	17.2	82	14.1	3	8	270	0.20	1012.059	0	0.000	0
20080603 21:30	16.9	16.9	16.9	83	14.0	3	8	270	0.00	1012.059	0	0.000	0
20080603 21:35	16.8	16.8	16.8	85	14.2	2	3	270	0.40	1012.228	0	0.000	0
20080603 21:40	16.6	16.6	16.6	86	14.3	0	5	270	0.20	1012.296	0	0.000	0
20080603 21:45	16.6	16.6	16.6	87	14.4	0	3	270	0.20	1012.262	0	0.000	0
20080603 21:50	16.5	16.5	16.5	87	14.3	0	3	270	0.40	1012.398	0	0.000	0
20080603 21:55	16.4	16.4	16.4	87	14.3	0	3	270	0.20	1012.330	0	0.000	0
20080603 22:00	16.4	16.4	16.4	87	14.2	2	5	270	0.20	1012.296	0	0.000	0
20080603 22:05	16.3	16.3	16.3	87	14.2	2	5	180	0.40	1012.262	0	0.000	0
20080603 22:10	16.2	16.2	16.2	86	13.9	0	3	180	0.00	1012.296	0	0.000	0
20080603 22:15	16.2	16.2	16.2	87	14.0	0	3	157	0.20	1012.330	0	0.000	0
20080603 22:20	16.1	16.1	16.1	86	13.8	0	3	157	0.00	1012.364	0	0.000	0
20080603 22:25	16.1	16.1	16.1	87	13.9	0	3	157	0.00	1012.398	0	0.000	0
20080603 22:30	16.0	16.0	16.0	86	13.7	0	2	157	0.20	1012.364	0	0.000	0
20080603 22:35	16.0	16.0	16.0	87	13.8	0	2	157	0.00	1012.364	0	0.000	0
20080603 22:40	15.9	15.9	15.9	87	13.8	0	0	157	0.00	1012.330	0	0.000	0
20080603 22:45	15.9	15.9	15.9	87	13.8	0	0	157	0.00	1012.398	0	0.000	0
20080603 22:50	15.9	15.9	15.9	88	14.0	0	2	157	0.00	1012.398	0	0.000	0
20080603 22:55	15.9	15.9	15.9	87	13.8	0	2	157	0.00	1012.431	0	0.000	0
20080603 23:00	15.9	15.9	15.9	87	13.7	0	3	157	0.00	1012.398	0	0.000	0
20080603 23:05	15.9	15.9	15.9	87	13.8	0	3	157	0.00	1012.262	0	0.000	0
20080603 23:10	15.9	15.9	15.9	87	13.8	0	0	157	0.00	1012.262	0	0.000	0
20080603 23:15	15.9	15.9	15.9	87	13.7	0	2	157	0.00	1012.296	0	0.000	0
20080603 23:20	15.9	15.9	15.9	88	14.0	0	0	157	0.00	1012.262	0	0.000	0
20080603 23:25	15.9	15.9	15.9	88	14.0	0	3	157	0.00	1012.194	0	0.000	0
20080603 23:30	15.9	15.9	15.9	88	14.0	0	5	157	0.00	1012.194	0	0.000	0
20080603 23:35	15.9	15.9	15.9	88	14.0	2	6	202	0.00	1012.194	0	0.000	0
20080603 23:40	15.9	15.9	15.9	89	14.1	3	6	202	0.00	1012.161	0	0.000	0
20080603 23:45	15.8	15.8	15.8	88	13.8	2	6	202	0.00	1012.296	0	0.000	0
20080603 23:50	15.7	15.7	15.7	89	13.9	0	5	202	0.00	1012.296	0	0.000	0
20080603 23:55	15.7	15.7	15.7	89	13.9	0	2	202	0.00	1012.296	0	0.000	0
20080603 24:00	15.6	15.6	15.6	89	13.8	3	10	202	0.00	1012.364	0	0.000	0



Please note the license to use and transfer of this data:
http://creativecommons.org/licenses/by-nc-sa/3.0/deed.en

Bitte beachten sie die Lizenz zur Verwertung und Weitergabe der Daten:
http://creativecommons.org/licenses/by-nc-sa/3.0/deed.de

zurück zur Übersicht der Archivdaten (Monats und Tagesdaten)

Cookies helfen bei der Bereitstellung von Inhalten. Durch die Nutzung dieser Seiten erklärst du dich damit einverstanden, dass Cookies auf deinem Rechner gespeichert werden. Weitere Information